Strona główna
METAR-TAF:

METAR-TAF

Lotnisko :

Shawbury, Anglia

Szerokość geograficzna: 52-48N, Długość geograficzna: 002-40W, wysokość: 76 m

Aktualna obserwacja pogody

Raport powstał 1 godzina i 1 minut temu, godzina 20:50 UTC
Wiatr 7 kt od zachód
Temperatura 12°C
Wilgotność 82%
Ciśnienie 999 hPa
Widzialność 10 km lub więcej
słaby mżawka

METAR: EGOS 042050Z AUTO 26007KT 9999 -DZ BKN050/// 12/09 Q0999

czas: 22:51 (21:51 UTC)

Prognoza

Raport powstał 8 godziny i 11 minut temu, godzina 13:40 UTC
Prognoza ważna od 04 godzina 15 UTC do 04 godzina 19 UTC
Wiatr 12 kt od zachodnio-północny zachód
Widzialność 10 km lub więcej
Rozproszone chmury na wysokości 3000 ft
Prawdopodobieństwo 40% :
Przejściowo
od 04 godzina 15 UTC do 04 godzina 19 UTC
Widzialność: 6000 m
Rozproszone chmury na wysokości 2200 ft
przelotny opad deszczu

TAF: EGOS 041340Z 0415/0419 30012KT 9999 SCT030 PROB40 TEMPO 0415/0419 6000 SHRA SCT022

Obserwacja i prognoza pogody dla ponad 4000 lotnisk (raport METAR i TAF).

Dostępne stacje oznaczono żółtymi i czerwonymi punktami na mapie.

Najedź kursorem aby zobaczyć nazwę stacji.

Kliknij aby zobaczyć obserwacje i prognozy pogody.

Aby zmienić mapę: kliknij na zielony przycisk z czarnym krzyżykiem, aby powiększyć; na zielony przycisk z myślnikiem, aby pomniejszyć; na zielone strzałki, aby przejść do map sąsiednich.


METAR-TAF: